Accueil
METAR-TAF:

METAR-TAF

Aéroports :

Aéroport international Saint-Gall-Altenrhein

Saint-Gall, Suisse

latitude: 47-29-06N, longitude: 009-33-43E, altitude: 398 m

Observation

Le bulletin a été fait il y a 29 minutes, à 02:20 UTC
Vent 4 kt de ouest
Température 2°C
Humidité 87%
Pression 1020 hPa
Visibilité 10 km ou plus
pas de nuages en-dessous de 1500 mètres et pas de cumulonimbus.

METAR: LSZR 170220Z AUTO 27004KT CAVOK 02/M00 Q1020

Heure: 04:49 (02:49 UTC)

Prévision

Le bulletin a été fait il y a 24 minutes, à 02:25 UTC
Prévision valable du 17 à 03 UTC au 17 à 12 UTC
Vent 5 kt de ouest/nord-ouest
Visibilité 10 km ou plus
pas de nuages en-dessous de 1500 mètres et pas de cumulonimbus.
Probabilité 40%
du 17 à 03 UTC au 17 à 12 UTC
Visibilité 10 km ou plus
Nuages fragmentés à une hauteur de 1200 ft

TAF: LSZR 170225Z 1703/1712 30005KT CAVOK PROB40 1703/1712 9999 BKN012

Observations et prévisions météorologiques de plus de 4000 aéroports (messages METAR et TAF).

Les stations disponibles sont représentées par des disques jaunes et rouges sur la carte.

Passer la souris dessus pour voir le nom de la station.

Cliquer dessus pour voir les observations et prévisions météorologiques.

Pour changer de carte: cliquez sur les boutons verts avec une croix noire pour zoomer, sur le bouton vert avec un tiret pour effectuer un zoom arrière, ou sur les flèches vertes pour les cartes adjacentes.


METAR-TAF: